Big Bear Station Historical Data
Daily Summary for June 16, 2017 Units:  English    Metric   Both
« Previous Day
Next Day »
Daily Weekly Monthly Yearly Custom
  High: Low: Average:
Temperature: 87.3 °F 43.5 °F 64.3 °F
Dew Point: 45.5 °F 21.9 °F 35.3 °F
Humidity: 70 % 17 % 38 %
Wind Speed: 5.8 mph 0.0 mph 1.7 mph
Wind Gust: -999.0 mph - -
Wind:- - NW
Pressure: 30.25 in 30.21 in -
Precipitation: 0.00 in    
Historical Graphs
 
 
Tabular Data for June 16, 2017
Time Temperature Dew Point Pressure Wind Wind Speed Wind Gust Humidity Rainfall Rate (Hourly)
00:12 50.7 °F 30.1 °F 30.24 in Calm   -999.0 mph 45 % 0 in
00:27 50.4 °F 32.0 °F 30.24 in Calm   -999.0 mph 49 % 0 in
00:42 49.6 °F 32.7 °F 30.24 in Calm   -999.0 mph 52 % 0 in
00:57 49.1 °F 31.3 °F 30.24 in Calm   -999.0 mph 50 % 0 in
01:13 48.4 °F 26.9 °F 30.24 in Calm   -999.0 mph 43 % 0 in
01:28 48.4 °F 28.0 °F 30.24 in Calm   -999.0 mph 45 % 0 in
01:43 47.8 °F 26.9 °F 30.23 in South 1.7 mph -999.0 mph 44 % 0 in
01:58 48.0 °F 24.2 °F 30.23 in Calm   -999.0 mph 39 % 0 in
02:14 47.1 °F 22.8 °F 30.23 in Calm   -999.0 mph 38 % 0 in
02:29 46.8 °F 21.9 °F 30.23 in Calm   -999.0 mph 37 % 0 in
02:44 46.6 °F 26.4 °F 30.23 in Calm   -999.0 mph 45 % 0 in
02:59 46.2 °F 30.0 °F 30.22 in Calm   -999.0 mph 53 % 0 in
03:14 46.0 °F 30.7 °F 30.22 in Calm   -999.0 mph 55 % 0 in
03:30 45.9 °F 29.7 °F 30.22 in Calm   -999.0 mph 53 % 0 in
03:45 45.5 °F 31.1 °F 30.22 in Calm   -999.0 mph 57 % 0 in
04:00 45.1 °F 30.3 °F 30.22 in Calm   -999.0 mph 56 % 0 in
04:15 45.0 °F 29.8 °F 30.22 in Calm   -999.0 mph 55 % 0 in
04:30 44.8 °F 31.3 °F 30.22 in Calm   -999.0 mph 59 % 0 in
04:46 44.4 °F 31.4 °F 30.23 in Calm   -999.0 mph 60 % 0 in
05:01 44.2 °F 30.8 °F 30.23 in Calm   -999.0 mph 59 % 0 in
05:16 43.7 °F 31.5 °F 30.23 in Calm   -999.0 mph 62 % 0 in
05:31 43.9 °F 32.1 °F 30.23 in Calm   -999.0 mph 63 % 0 in
05:46 43.7 °F 32.7 °F 30.23 in Calm   -999.0 mph 65 % 0 in
06:02 43.5 °F 32.5 °F 30.23 in Calm   -999.0 mph 65 % 0 in
06:17 43.7 °F 32.3 °F 30.23 in Calm   -999.0 mph 64 % 0 in
06:32 44.2 °F 33.6 °F 30.23 in Calm   -999.0 mph 66 % 0 in
06:47 44.4 °F 34.5 °F 30.23 in Calm   -999.0 mph 68 % 0 in
07:02 45.0 °F 35.8 °F 30.24 in Calm   -999.0 mph 70 % 0 in
07:18 46.0 °F 36.4 °F 30.23 in Calm   -999.0 mph 69 % 0 in
07:33 47.1 °F 37.8 °F 30.23 in Calm   -999.0 mph 70 % 0 in
07:48 48.7 °F 39.0 °F 30.23 in Calm   -999.0 mph 69 % 0 in
08:03 50.7 °F 39.4 °F 30.23 in Calm   -999.0 mph 65 % 0 in
08:19 52.7 °F 37.9 °F 30.24 in Calm   -999.0 mph 57 % 0 in
08:34 54.7 °F 38.8 °F 30.24 in Calm   -999.0 mph 55 % 0 in
08:49 56.7 °F 42.5 °F 30.24 in Calm   -999.0 mph 59 % 0 in
09:04 58.8 °F 40.7 °F 30.24 in Calm   -999.0 mph 51 % 0 in
09:19 62.2 °F 42.3 °F 30.24 in NW 2.2 mph -999.0 mph 48 % 0 in
09:35 64.6 °F 41.0 °F 30.24 in Calm   -999.0 mph 42 % 0 in
09:50 69.1 °F 37.2 °F 30.24 in North 1.1 mph -999.0 mph 31 % 0 in
10:05 72.1 °F 32.3 °F 30.24 in NW 4.2 mph -999.0 mph 23 % 0 in
10:20 73.9 °F 32.7 °F 30.24 in NNW 3.2 mph -999.0 mph 22 % 0 in
10:35 74.7 °F 35.5 °F 30.23 in NNW 3.2 mph -999.0 mph 24 % 0 in
10:51 75.9 °F 33.2 °F 30.24 in NW 3.2 mph -999.0 mph 21 % 0 in
11:06 76.6 °F 34.9 °F 30.24 in NW 4.7 mph -999.0 mph 22 % 0 in
11:21 77.9 °F 38.2 °F 30.24 in NNW 4.2 mph -999.0 mph 24 % 0 in
11:37 79.2 °F 35.9 °F 30.24 in South 4.2 mph -999.0 mph 21 % 0 in
11:52 79.7 °F 32.4 °F 30.24 in NW 5.3 mph -999.0 mph 18 % 0 in
12:07 82.2 °F 37.1 °F 30.24 in NW 3.7 mph -999.0 mph 20 % 0 in
12:22 83.5 °F 36.9 °F 30.24 in NNW 3.2 mph -999.0 mph 19 % 0 in
12:38 84.0 °F 37.3 °F 30.25 in NW 5.3 mph -999.0 mph 19 % 0 in
12:53 83.8 °F 34.3 °F 30.24 in NW 5.3 mph -999.0 mph 17 % 0 in
13:08 84.2 °F 36.1 °F 30.24 in WNW 2.7 mph -999.0 mph 18 % 0 in
13:24 85.6 °F 37.2 °F 30.24 in North 2.7 mph -999.0 mph 18 % 0 in
13:39 87.3 °F 38.6 °F 30.24 in West 4.7 mph -999.0 mph 18 % 0 in
13:55 85.1 °F 38.2 °F 30.23 in NNW 3.7 mph -999.0 mph 19 % 0 in
14:10 85.5 °F 39.9 °F 30.23 in WNW 3.7 mph -999.0 mph 20 % 0 in
14:25 85.8 °F 38.8 °F 30.23 in WNW 5.3 mph -999.0 mph 19 % 0 in
14:41 85.8 °F 40.1 °F 30.23 in NW 4.2 mph -999.0 mph 20 % 0 in
14:56 85.6 °F 43.6 °F 30.23 in NNW 4.2 mph -999.0 mph 23 % 0 in
15:11 85.5 °F 39.9 °F 30.23 in NW 4.7 mph -999.0 mph 20 % 0 in
15:26 84.6 °F 42.7 °F 30.22 in NW 4.7 mph -999.0 mph 23 % 0 in
15:42 84.4 °F 42.6 °F 30.22 in NNW 4.7 mph -999.0 mph 23 % 0 in
15:57 84.2 °F 42.4 °F 30.22 in NNW 3.7 mph -999.0 mph 23 % 0 in
16:13 83.1 °F 41.5 °F 30.22 in NNW 5.8 mph -999.0 mph 23 % 0 in
16:28 83.8 °F 43.2 °F 30.22 in NNW 5.3 mph -999.0 mph 24 % 0 in
16:44 85.3 °F 42.2 °F 30.21 in WNW 4.7 mph -999.0 mph 22 % 0 in
16:59 85.5 °F 41.1 °F 30.21 in NNW 4.2 mph -999.0 mph 21 % 0 in
17:14 84.9 °F 40.6 °F 30.21 in NNW 4.7 mph -999.0 mph 21 % 0 in
17:29 84.4 °F 42.6 °F 30.21 in NW 4.7 mph -999.0 mph 23 % 0 in
17:45 83.3 °F 42.8 °F 30.21 in NW 4.7 mph -999.0 mph 24 % 0 in
18:00 82.6 °F 42.2 °F 30.21 in NW 2.2 mph -999.0 mph 24 % 0 in
18:15 82.4 °F 43.1 °F 30.21 in North 5.8 mph -999.0 mph 25 % 0 in
18:31 79.9 °F 42.9 °F 30.21 in NW 3.2 mph -999.0 mph 27 % 0 in
18:46 80.1 °F 44.1 °F 30.21 in NW 4.7 mph -999.0 mph 28 % 0 in
19:01 79.2 °F 44.2 °F 30.21 in Calm   -999.0 mph 29 % 0 in
19:16 76.8 °F 44.7 °F 30.21 in SSW 1.1 mph -999.0 mph 32 % 0 in
19:31 73.2 °F 45.4 °F 30.21 in NNW 2.2 mph -999.0 mph 37 % 0 in
19:47 70.3 °F 45.5 °F 30.21 in Calm   -999.0 mph 41 % 0 in
20:02 68.5 °F 43.9 °F 30.22 in Calm   -999.0 mph 41 % 0 in
20:17 66.6 °F 38.1 °F 30.21 in Calm   -999.0 mph 35 % 0 in
20:32 65.1 °F 31.2 °F 30.22 in Calm   -999.0 mph 28 % 0 in
20:47 63.9 °F 30.1 °F 30.22 in South 2.7 mph -999.0 mph 28 % 0 in
21:03 63.0 °F 28.5 °F 30.23 in South 2.2 mph -999.0 mph 27 % 0 in
21:18 62.8 °F 26.4 °F 30.23 in Calm   -999.0 mph 25 % 0 in
21:33 61.3 °F 27.0 °F 30.23 in Calm   -999.0 mph 27 % 0 in
21:49 60.1 °F 30.9 °F 30.23 in Calm   -999.0 mph 33 % 0 in
22:04 59.0 °F 25.9 °F 30.23 in Calm   -999.0 mph 28 % 0 in
22:19 58.1 °F 29.1 °F 30.24 in Calm   -999.0 mph 33 % 0 in
22:34 57.2 °F 27.6 °F 30.23 in Calm   -999.0 mph 32 % 0 in
22:49 56.7 °F 25.6 °F 30.23 in Calm   -999.0 mph 30 % 0 in
23:05 55.9 °F 28.6 °F 30.23 in Calm   -999.0 mph 35 % 0 in
23:20 55.4 °F 33.3 °F 30.23 in Calm   -999.0 mph 43 % 0 in
23:35 54.9 °F 31.6 °F 30.23 in Calm   -999.0 mph 41 % 0 in
23:50 54.1 °F 32.7 °F 30.23 in Calm   -999.0 mph 44 % 0 in
Big Bear CA Weather
Compliments of Weather Underground - 1.5 mb